Columbus, North Dakota
Current Conditions -  °F | °C
As of 6:00 PM on Friday 24 Oct 2014 (Local Time) from CYEN Reporting Station
Scattered Clouds Scattered Clouds  
Wind Chill: 14°   Ceiling: Unl
Heat Index: 14°   Visibility: 15mi
Dew Point: -2°   Wind: 18mph
Humidity: 33%   Direction: 280°W
Pressure: 29.9"   Gusts: 25mph
Location:  48.9°N, 102.78°W
Report Text: CYEN 242300Z 28016G22KT 15SM FEW150 SCT250 14/M02 A2990 RMKAC1CI1 SLP134
Loading
Personal Weather Stations






























Interactive Weather Map
Tropical Storm Tracking
New forecast layout! Learn more

10-Day Weather Forecast

Advertisements
Track Severe Weather on mobile